Time;durP1;ratioP1;P1;durP2;ratioP2;P2;SDS_P1;SDS_P2;PMS_P1;PMS_P2;Temp;Humidity;BMP_temperature;BMP_pressure;BME280_temperature;BME280_humidity;BME280_pressure;Samples;Min_cycle;Max_cycle;Signal;HPM_P1;HPM_P2
2022/08/21 00:09:45;;;;;;;0.20;0.10;;;24.40;99.90;;;;;;26148342;22;20550;-68
2022/08/21 00:19:49;;;;;;;0.20;0.00;;;24.40;99.90;;;;;;26174718;22;20190;-68
2022/08/21 00:29:55;;;;;;;0.20;0.00;;;24.50;99.90;;;;;;26176045;22;20164;-68
2022/08/21 00:39:58;;;;;;;0.20;0.00;;;24.80;99.90;;;;;;26146744;22;20251;-68
2022/08/21 00:50:07;;;;;;;0.20;0.00;;;24.60;99.90;;;;;;26175082;22;20167;-68
2022/08/21 01:00:20;;;;;;;0.20;0.00;;;24.50;99.90;;;;;;26175651;22;20183;-69
2022/08/21 01:10:25;;;;;;;0.20;0.00;;;24.50;99.90;;;;;;26172909;22;20195;-67
2022/08/21 01:20:29;;;;;;;0.20;0.00;;;24.70;99.90;;;;;;26174675;22;20179;-68
2022/08/21 01:30:37;;;;;;;0.20;0.00;;;24.70;99.90;;;;;;26173567;22;20171;-67
2022/08/21 01:40:41;;;;;;;0.20;0.00;;;24.60;99.90;;;;;;26172760;22;20187;-67
2022/08/21 01:50:46;;;;;;;0.20;0.00;;;24.60;99.90;;;;;;26170428;22;20171;-68
2022/08/21 02:00:55;;;;;;;0.20;0.00;;;24.50;99.90;;;;;;26171784;22;20186;-69
2022/08/21 02:11:01;;;;;;;0.20;0.00;;;24.20;99.90;;;;;;26171998;22;20219;-68
2022/08/21 02:21:06;;;;;;;0.20;0.00;;;24.10;99.90;;;;;;26171164;22;20187;-67
2022/08/21 02:31:12;;;;;;;0.20;0.00;;;24.00;99.90;;;;;;26172005;22;20168;-67
2022/08/21 02:41:21;;;;;;;0.20;0.00;;;24.00;99.90;;;;;;26171021;22;20198;-68
2022/08/21 02:51:26;;;;;;;0.20;0.00;;;23.90;99.90;;;;;;26170557;22;20163;-68
2022/08/21 03:01:30;;;;;;;0.20;0.00;;;23.90;99.90;;;;;;26171074;22;20190;-68
2022/08/21 03:11:36;;;;;;;0.20;0.00;;;23.90;99.90;;;;;;26168933;22;20206;-68
2022/08/21 03:21:40;;;;;;;0.20;0.00;;;23.80;99.90;;;;;;26170925;22;20195;-68
2022/08/21 03:31:45;;;;;;;0.20;0.00;;;24.10;99.90;;;;;;26169971;22;20167;-68
2022/08/21 03:41:49;;;;;;;0.20;0.00;;;24.10;99.90;;;;;;26176727;22;20194;-68
2022/08/21 03:51:54;;;;;;;0.20;0.00;;;24.10;99.90;;;;;;26175825;22;20175;-68
2022/08/21 04:02:05;;;;;;;0.20;0.00;;;23.90;99.90;;;;;;26148884;22;20191;-67
2022/08/21 04:12:11;;;;;;;0.20;0.00;;;24.00;99.90;;;;;;26176230;22;20279;-68
2022/08/21 04:22:14;;;;;;;0.20;0.00;;;23.90;99.90;;;;;;26176190;22;20179;-68
2022/08/21 04:32:24;;;;;;;0.20;0.00;;;24.00;99.90;;;;;;26148682;22;20160;-68
2022/08/21 04:42:29;;;;;;;0.20;0.00;;;23.80;99.90;;;;;;26174108;22;20184;-68
2022/08/21 04:52:34;;;;;;;0.20;0.00;;;23.90;99.90;;;;;;26148978;22;20183;-67
2022/08/21 05:02:39;;;;;;;0.20;0.00;;;23.70;99.90;;;;;;26145448;22;20252;-69
2022/08/21 05:12:45;;;;;;;0.20;0.00;;;23.70;99.90;;;;;;26172520;22;20191;-68
2022/08/21 05:22:50;;;;;;;0.20;0.10;;;23.60;99.90;;;;;;26172968;22;20175;-68
2022/08/21 05:32:59;;;;;;;0.20;0.00;;;23.40;99.90;;;;;;26171844;22;20167;-68
2022/08/21 05:43:03;;;;;;;0.20;0.00;;;23.50;99.90;;;;;;26173313;22;20198;-68
2022/08/21 05:53:10;;;;;;;0.20;0.03;;;23.60;99.90;;;;;;26171884;22;20168;-68
2022/08/21 06:03:16;;;;;;;0.20;0.00;;;23.60;99.90;;;;;;26172733;22;20184;-68
2022/08/21 06:13:22;;;;;;;0.20;0.00;;;23.80;99.90;;;;;;26145266;22;20232;-67
2022/08/21 06:23:26;;;;;;;0.20;0.10;;;23.80;99.90;;;;;;26142646;22;20179;-68
2022/08/21 06:33:37;;;;;;;0.20;0.00;;;24.00;99.90;;;;;;26144938;22;20171;-68
2022/08/21 06:43:40;;;;;;;0.20;0.00;;;24.30;99.90;;;;;;26169501;22;20183;-68
2022/08/21 06:53:46;;;;;;;0.20;0.00;;;24.80;99.90;;;;;;26166787;22;20163;-68
2022/08/21 07:03:50;;;;;;;0.20;0.00;;;25.60;99.90;;;;;;26168561;22;20266;-68
2022/08/21 07:13:56;;;;;;;0.20;0.00;;;26.20;99.90;;;;;;26176141;22;20187;-68
2022/08/21 07:24:00;;;;;;;0.20;0.00;;;26.50;99.90;;;;;;26177758;22;20183;-67
2022/08/21 07:34:05;;;;;;;0.20;0.00;;;26.60;99.90;;;;;;26177741;22;20168;-68
2022/08/21 07:44:09;;;;;;;0.20;0.00;;;26.90;99.90;;;;;;26177163;22;20194;-68
2022/08/21 07:54:16;;;;;;;0.20;0.00;;;27.10;99.90;;;;;;26175892;22;20170;-69
2022/08/21 08:04:30;;;;;;;0.20;0.00;;;27.20;99.90;;;;;;26173148;22;20194;-69
2022/08/21 08:14:35;;;;;;;0.20;0.00;;;27.50;99.90;;;;;;26173549;22;20187;-68
2022/08/21 08:24:39;;;;;;;0.20;0.10;;;27.50;99.90;;;;;;26147366;22;20199;-68
2022/08/21 08:34:46;;;;;;;0.20;0.10;;;27.30;99.90;;;;;;26148145;22;20167;-67
2022/08/21 08:45:11;;;;;;;0.20;0.00;;;27.20;99.90;;;;;;26173391;22;20183;-68
2022/08/21 08:55:20;;;;;;;0.20;0.00;;;27.30;99.90;;;;;;26145025;22;20174;-68
2022/08/21 09:05:33;;;;;;;0.20;0.00;;;27.50;99.90;;;;;;26144873;22;20191;-68
2022/08/21 09:15:53;;;;;;;0.20;0.00;;;27.60;99.90;;;;;;26172470;22;20206;-68
2022/08/21 09:26:06;;;;;;;0.20;0.00;;;27.70;99.90;;;;;;26171740;22;20187;-67
2022/08/21 09:36:11;;;;;;;0.20;0.00;;;28.00;99.90;;;;;;26142839;22;20170;-68
2022/08/21 09:46:23;;;;;;;0.20;0.00;;;28.40;99.90;;;;;;26168476;22;20167;-68
2022/08/21 10:06:53;;;;;;;0.20;0.00;;;28.80;99.90;;;;;;26167351;22;20198;-70
2022/08/21 10:17:05;;;;;;;0.20;0.00;;;29.00;99.90;;;;;;26169329;22;20244;-68
2022/08/21 10:27:16;;;;;;;0.20;0.00;;;29.10;99.90;;;;;;26117165;22;20220;-69
2022/08/21 10:37:33;;;;;;;0.20;0.00;;;29.50;99.90;;;;;;26163222;22;20194;-66
2022/08/21 10:47:42;;;;;;;0.20;0.00;;;29.70;99.90;;;;;;26166118;22;20528;-69
2022/08/21 10:57:51;;;;;;;0.20;0.00;;;30.20;99.90;;;;;;26166655;22;20187;-69
2022/08/21 11:07:59;;;;;;;0.20;0.00;;;30.10;99.90;;;;;;26139888;22;20189;-68
2022/08/21 11:18:19;;;;;;;0.20;0.00;;;29.80;99.90;;;;;;26137884;22;20289;-68
2022/08/21 11:28:32;;;;;;;0.20;0.00;;;31.10;99.90;;;;;;26164315;22;20179;-68
2022/08/21 11:38:41;;;;;;;0.20;0.00;;;31.70;99.90;;;;;;26163773;22;20198;-68
2022/08/21 11:48:58;;;;;;;0.20;0.00;;;32.10;99.90;;;;;;26138306;22;20152;-70
2022/08/21 11:59:07;;;;;;;0.20;0.00;;;32.50;99.90;;;;;;26169999;22;20189;-68
2022/08/21 12:09:34;;;;;;;0.20;0.00;;;32.80;99.90;;;;;;26172587;22;20195;-70
2022/08/21 12:19:39;;;;;;;0.20;0.00;;;33.20;99.90;;;;;;26170014;22;20179;-69
2022/08/21 12:29:49;;;;;;;0.20;0.00;;;33.30;99.90;;;;;;26140625;22;20167;-69
2022/08/21 12:39:59;;;;;;;0.20;0.00;;;33.80;99.90;;;;;;26143400;22;20182;-69
2022/08/21 12:50:08;;;;;;;0.20;0.00;;;33.40;99.90;;;;;;26166052;22;20379;-68
2022/08/21 13:00:15;;;;;;;0.20;0.00;;;34.40;99.90;;;;;;26170294;22;20194;-70
2022/08/21 13:10:22;;;;;;;0.20;0.00;;;34.60;99.90;;;;;;26140738;22;20206;-69
2022/08/21 13:20:31;;;;;;;0.20;0.00;;;35.20;99.90;;;;;;26170525;22;20251;-71
2022/08/21 13:30:35;;;;;;;0.20;0.03;;;34.70;99.90;;;;;;26170331;22;20163;-70
2022/08/21 13:40:48;;;;;;;0.20;0.00;;;34.40;99.90;;;;;;26171023;22;20202;-69
2022/08/21 13:50:52;;;;;;;0.20;0.00;;;34.10;99.90;;;;;;26169923;22;20197;-70
2022/08/21 14:00:58;;;;;;;0.20;0.00;;;34.10;99.90;;;;;;26170326;22;20194;-70
2022/08/21 14:11:04;;;;;;;0.20;0.00;;;34.40;99.90;;;;;;26168305;22;20198;-70
2022/08/21 14:21:11;;;;;;;0.20;0.00;;;34.20;99.90;;;;;;26140111;22;20244;-70
2022/08/21 14:31:17;;;;;;;0.20;0.00;;;34.00;99.90;;;;;;26140159;22;20164;-68
2022/08/21 14:41:25;;;;;;;0.20;0.00;;;32.90;99.90;;;;;;26164636;22;20209;-70
2022/08/21 14:51:29;;;;;;;0.20;0.00;;;33.20;99.90;;;;;;26168246;22;20171;-69
2022/08/21 15:01:37;;;;;;;0.20;0.00;;;31.10;99.90;;;;;;26167577;22;20194;-69
2022/08/21 15:11:43;;;;;;;0.20;0.00;;;29.80;99.90;;;;;;26163362;22;20191;-69
2022/08/21 15:21:48;;;;;;;0.20;0.00;;;29.40;99.90;;;;;;26165756;22;20246;-69
2022/08/21 15:31:54;;;;;;;0.20;0.00;;;28.70;99.90;;;;;;26168176;22;20174;-70
2022/08/21 15:42:00;;;;;;;0.20;0.00;;;28.60;99.90;;;;;;26144965;22;20184;-68
2022/08/21 15:52:14;;;;;;;0.20;0.00;;;28.00;99.90;;;;;;26170975;22;20217;-69
2022/08/21 16:02:22;;;;;;;0.20;0.00;;;27.40;99.90;;;;;;26170429;22;20223;-68
2022/08/21 16:12:30;;;;;;;0.20;0.00;;;26.80;99.90;;;;;;26141066;22;20286;-68
2022/08/21 16:22:36;;;;;;;0.20;0.03;;;26.10;99.90;;;;;;26144289;22;20183;-69
2022/08/21 16:32:57;;;;;;;0.20;0.00;;;24.50;99.90;;;;;;26169807;22;20159;-67
2022/08/21 16:43:03;;;;;;;0.20;0.00;;;23.80;99.90;;;;;;26144330;22;20214;-72
2022/08/21 16:53:06;;;;;;;0.20;0.00;;;23.80;99.90;;;;;;26145067;22;20174;-71
2022/08/21 17:03:15;;;;;;;0.20;0.00;;;23.70;99.90;;;;;;26142259;22;20186;-72
2022/08/21 17:13:19;;;;;;;0.20;0.00;;;24.00;99.90;;;;;;26168616;22;20528;-72
2022/08/21 17:23:24;;;;;;;0.20;0.00;;;23.70;99.90;;;;;;26168102;22;20179;-74
2022/08/21 17:33:31;;;;;;;0.20;0.00;;;23.70;99.90;;;;;;26169691;22;20164;-73
2022/08/21 17:43:37;;;;;;;0.20;0.00;;;23.80;99.90;;;;;;26143761;22;20183;-73
2022/08/21 17:53:41;;;;;;;0.20;0.00;;;23.70;99.90;;;;;;26135792;22;20171;-73
2022/08/21 18:03:47;;;;;;;0.20;0.00;;;23.80;99.90;;;;;;26164154;22;20179;-74
2022/08/21 18:13:51;;;;;;;0.20;0.00;;;24.00;99.90;;;;;;26137055;22;20191;-72
2022/08/21 18:23:57;;;;;;;0.20;0.00;;;24.00;99.90;;;;;;26163903;22;20214;-72
2022/08/21 18:34:02;;;;;;;0.20;0.00;;;23.80;99.90;;;;;;26164511;22;20164;-72
2022/08/21 18:44:07;;;;;;;0.20;0.00;;;23.80;99.90;;;;;;26164261;22;20177;-72
2022/08/21 18:54:14;;;;;;;0.20;0.00;;;23.70;99.90;;;;;;26161785;22;20287;-73
2022/08/21 19:04:21;;;;;;;0.20;0.00;;;23.60;99.90;;;;;;26164286;22;20198;-72
2022/08/21 19:14:45;;;;;;;0.20;0.00;;;23.70;99.90;;;;;;26168089;22;20207;-73
2022/08/21 19:24:56;;;;;;;0.20;0.00;;;23.70;99.90;;;;;;26143783;22;20248;-72
2022/08/21 19:35:00;;;;;;;0.20;0.00;;;23.80;99.90;;;;;;26141873;22;20164;-72
2022/08/21 19:45:07;;;;;;;0.20;0.00;;;23.80;99.90;;;;;;26141510;22;20183;-72
2022/08/21 19:55:12;;;;;;;0.20;0.00;;;24.00;99.90;;;;;;26171466;22;20197;-72
2022/08/21 20:05:19;;;;;;;0.20;0.00;;;24.10;99.90;;;;;;26170416;22;20199;-72
2022/08/21 20:15:23;;;;;;;0.20;0.00;;;24.00;99.90;;;;;;26171155;22;20202;-72
2022/08/21 20:25:31;;;;;;;0.20;0.00;;;24.10;99.90;;;;;;26169109;22;20187;-72
2022/08/21 20:35:37;;;;;;;0.20;0.00;;;24.00;99.90;;;;;;26143169;22;20189;-71
2022/08/21 20:45:43;;;;;;;0.20;0.00;;;24.00;99.90;;;;;;26170010;22;20191;-71
2022/08/21 20:55:49;;;;;;;0.20;0.00;;;23.90;99.90;;;;;;26169810;22;20163;-72
2022/08/21 21:06:00;;;;;;;0.20;0.00;;;23.90;99.90;;;;;;26168463;22;20202;-75
2022/08/21 21:16:09;;;;;;;0.20;0.00;;;23.80;99.90;;;;;;26168277;22;20199;-76
2022/08/21 21:26:21;;;;;;;0.20;0.00;;;23.60;99.90;;;;;;26138235;22;20179;-75
2022/08/21 21:36:42;;;;;;;0.20;0.00;;;23.70;99.90;;;;;;26132988;22;20230;-71
2022/08/21 21:47:03;;;;;;;0.20;0.00;;;23.50;99.90;;;;;;26167551;22;20201;-71
2022/08/21 21:57:18;;;;;;;0.20;0.00;;;23.40;99.90;;;;;;26167534;22;20163;-72
2022/08/21 22:07:28;;;;;;;0.20;0.00;;;23.20;99.90;;;;;;26140459;22;20195;-72
2022/08/21 22:17:58;;;;;;;0.20;0.00;;;23.30;99.90;;;;;;26165493;22;20199;-72
2022/08/21 22:28:10;;;;;;;0.20;0.00;;;23.20;99.90;;;;;;26141774;22;20187;-71
2022/08/21 22:38:19;;;;;;;0.20;0.00;;;23.20;99.90;;;;;;26142461;22;20163;-71
2022/08/21 22:48:28;;;;;;;0.20;0.00;;;23.10;99.90;;;;;;26169198;22;20167;-71
2022/08/21 22:58:38;;;;;;;0.20;0.00;;;22.90;99.90;;;;;;26170294;22;20223;-72
2022/08/21 23:08:45;;;;;;;0.20;0.00;;;23.00;99.90;;;;;;26142097;22;20228;-70
2022/08/21 23:19:07;;;;;;;0.20;0.00;;;23.00;99.90;;;;;;26167668;22;20230;-71
2022/08/21 23:29:22;;;;;;;0.20;0.00;;;23.00;99.90;;;;;;26140997;22;20164;-69
2022/08/21 23:39:41;;;;;;;0.20;0.00;;;23.00;99.90;;;;;;26167332;22;20725;-71
2022/08/21 23:49:58;;;;;;;0.20;0.00;;;23.00;99.90;;;;;;26168044;22;20219;-71
